Time;durP1;ratioP1;P1;durP2;ratioP2;P2;SDS_P1;SDS_P2;PMS_P1;PMS_P2;Temp;Humidity;BMP_temperature;BMP_pressure;BME280_temperature;BME280_humidity;BME280_pressure;Samples;Min_cycle;Max_cycle;Signal;HPM_P1;HPM_P2
2023/07/10 00:02:10;;;;;;;2.40;2.02;;;;;;;19.71;52.68;100096.97;1744248;82;21043;-65
2023/07/10 00:04:38;;;;;;;6.45;2.55;;;;;;;19.69;52.87;100091.67;1744009;82;21163;-66
2023/07/10 00:07:09;;;;;;;4.47;2.40;;;;;;;19.68;52.92;100092.78;1743886;82;21035;-66
2023/07/10 00:09:39;;;;;;;4.33;2.20;;;;;;;19.67;52.96;100099.44;1744181;82;21043;-66
2023/07/10 00:12:10;;;;;;;4.33;2.50;;;;;;;19.66;53.03;100097.77;1743973;82;21086;-66
2023/07/10 00:14:40;;;;;;;3.25;2.40;;;;;;;19.65;52.97;100094.70;1743857;82;21039;-67
2023/07/10 00:17:10;;;;;;;2.72;2.05;;;;;;;19.61;53.04;100101.34;1700030;82;21118;-67
2023/07/10 00:19:41;;;;;;;3.33;2.05;;;;;;;19.60;53.17;100103.00;1743976;82;21039;-67
2023/07/10 00:22:11;;;;;;;3.33;2.37;;;;;;;19.56;53.38;100103.23;1743931;82;21011;-66
2023/07/10 00:24:40;;;;;;;3.47;2.20;;;;;;;19.52;53.59;100096.50;1744161;82;21086;-65
2023/07/10 00:27:13;;;;;;;3.80;2.22;;;;;;;19.51;53.73;100097.05;1723057;82;21007;-66
2023/07/10 00:29:42;;;;;;;6.17;2.35;;;;;;;19.49;53.80;100097.83;1723328;82;21043;-66
2023/07/10 00:32:16;;;;;;;3.25;2.33;;;;;;;19.48;53.86;100099.48;1744151;82;20999;-66
2023/07/10 00:34:45;;;;;;;2.33;2.12;;;;;;;19.46;53.96;100101.14;1744181;82;21062;-66
2023/07/10 00:37:14;;;;;;;2.60;2.30;;;;;;;19.44;53.95;100099.17;1723448;82;21023;-66
2023/07/10 00:39:44;;;;;;;3.90;2.27;;;;;;;19.42;54.15;100096.38;1743938;82;21012;-66
2023/07/10 00:42:21;;;;;;;2.50;2.10;;;;;;;19.39;54.14;100094.95;1744110;82;21023;-66
2023/07/10 00:44:57;;;;;;;6.17;2.30;;;;;;;19.36;54.21;100102.98;1744024;82;21485;-67
2023/07/10 00:47:37;;;;;;;4.30;2.23;;;;;;;19.32;54.42;100104.89;1744281;82;21035;-66
2023/07/10 00:50:21;;;;;;;3.75;2.40;;;;;;;19.30;54.51;100104.32;1743928;82;21489;-67
2023/07/10 00:52:50;;;;;;;4.53;2.80;;;;;;;19.28;54.64;100107.08;1743819;82;21490;-66
2023/07/10 00:55:34;;;;;;;4.10;2.87;;;;;;;19.27;54.73;100111.79;1744260;82;21085;-66
2023/07/10 00:58:24;;;;;;;3.77;2.33;;;;;;;19.23;54.88;100107.02;1743739;82;21039;-66
2023/07/10 01:01:08;;;;;;;6.97;2.37;;;;;;;19.20;55.04;100108.38;1743415;82;21557;-65
2023/07/10 01:03:42;;;;;;;5.65;2.50;;;;;;;19.19;55.03;100107.25;1724246;82;21289;-67
2023/07/10 01:06:25;;;;;;;3.87;2.58;;;;;;;19.16;55.01;100111.39;1723894;82;21078;-66
2023/07/10 01:09:01;;;;;;;3.60;2.12;;;;;;;19.15;55.12;100108.88;1723482;82;21039;-65
2023/07/10 01:11:36;;;;;;;4.80;3.15;;;;;;;19.10;55.44;100114.38;1744223;82;21435;-66
2023/07/10 01:14:08;;;;;;;5.47;2.37;;;;;;;19.07;55.62;100113.52;1743844;82;21024;-66
2023/07/10 01:16:38;;;;;;;3.47;2.22;;;;;;;19.03;55.76;100107.64;1743936;82;21055;-65
2023/07/10 01:19:11;;;;;;;3.22;2.30;;;;;;;19.01;55.82;100115.39;1744018;82;21028;-66
2023/07/10 01:21:40;;;;;;;4.47;2.60;;;;;;;18.98;55.99;100109.80;1743887;82;21074;-67
2023/07/10 01:24:09;;;;;;;2.87;2.20;;;;;;;18.95;56.17;100123.38;1743919;82;21062;-65
2023/07/10 01:26:38;;;;;;;5.65;2.30;;;;;;;18.92;56.32;100119.73;1743692;82;21537;-66
2023/07/10 01:29:27;;;;;;;3.47;2.55;;;;;;;18.89;56.37;100116.92;1744024;82;21485;-67
2023/07/10 01:31:57;;;;;;;3.87;2.47;;;;;;;18.87;56.57;100116.89;1743785;82;21522;-66
2023/07/10 01:34:40;;;;;;;3.90;2.50;;;;;;;18.83;56.61;100117.09;1743769;82;21035;-66
2023/07/10 01:37:09;;;;;;;3.83;2.20;;;;;;;18.81;56.77;100121.51;1744071;82;21039;-67
2023/07/10 01:39:46;;;;;;;4.33;2.35;;;;;;;18.78;56.86;100127.58;1744002;82;21051;-67
2023/07/10 01:42:14;;;;;;;5.30;2.40;;;;;;;18.75;57.05;100123.09;1743697;82;21161;-67
2023/07/10 01:44:48;;;;;;;3.15;2.40;;;;;;;18.73;57.16;100122.51;1744009;82;21031;-68
2023/07/10 01:47:18;;;;;;;3.90;2.62;;;;;;;18.66;57.34;100119.93;1743880;82;21058;-68
2023/07/10 01:49:58;;;;;;;3.60;2.60;;;;;;;18.61;57.53;100123.99;1743961;82;21073;-66
2023/07/10 01:52:27;;;;;;;3.62;2.35;;;;;;;18.59;57.68;100131.19;1744045;82;21480;-66
2023/07/10 01:54:59;;;;;;;3.72;2.47;;;;;;;18.56;57.86;100128.09;1744098;82;21003;-66
2023/07/10 01:57:28;;;;;;;4.40;2.70;;;;;;;18.51;58.02;100130.25;1743527;82;21079;-66
2023/07/10 01:59:58;;;;;;;5.42;2.70;;;;;;;18.48;58.11;100134.92;1742073;82;21488;-67
2023/07/10 02:02:28;;;;;;;3.75;2.62;;;;;;;18.46;58.22;100130.17;1742105;82;21499;-66
2023/07/10 02:04:58;;;;;;;4.55;2.80;;;;;;;18.43;58.28;100136.78;1715483;82;21074;-65
2023/07/10 02:07:27;;;;;;;5.20;2.90;;;;;;;18.41;58.38;100132.88;1742047;82;21118;-65
2023/07/10 02:09:55;;;;;;;5.15;2.65;;;;;;;18.40;58.54;100133.13;1742313;82;21024;-67
2023/07/10 02:12:25;;;;;;;3.37;2.85;;;;;;;18.36;58.56;100143.90;1742229;82;21533;-65
2023/07/10 02:14:55;;;;;;;6.15;2.67;;;;;;;18.35;58.86;100143.06;1742278;82;21493;-67
2023/07/10 02:17:23;;;;;;;6.70;2.83;;;;;;;18.33;59.00;100148.58;1742423;82;21482;-67
2023/07/10 02:19:53;;;;;;;3.05;2.42;;;;;;;18.31;59.18;100142.44;1742086;82;21035;-65
2023/07/10 02:22:26;;;;;;;6.70;3.00;;;;;;;18.31;59.20;100149.37;1742341;82;21011;-67
2023/07/10 02:24:56;;;;;;;5.75;3.00;;;;;;;18.28;59.28;100154.05;1742136;82;21503;-66
2023/07/10 02:27:25;;;;;;;3.98;2.50;;;;;;;18.26;59.36;100150.69;1742301;82;21079;-67
2023/07/10 02:29:55;;;;;;;5.42;2.47;;;;;;;18.26;59.46;100156.23;1715821;82;21460;-67
2023/07/10 02:32:25;;;;;;;3.40;2.60;;;;;;;18.22;59.69;100160.06;1742081;82;21027;-66
2023/07/10 02:34:56;;;;;;;4.78;2.90;;;;;;;18.16;59.81;100158.81;1742295;82;21440;-67
2023/07/10 02:37:26;;;;;;;2.95;2.47;;;;;;;18.14;60.00;100159.62;1742300;82;21028;-66
2023/07/10 02:39:55;;;;;;;4.92;3.00;;;;;;;18.14;60.08;100159.62;1742315;82;21039;-65
2023/07/10 02:42:24;;;;;;;5.55;2.83;;;;;;;18.13;60.19;100162.09;1742314;82;21086;-66
2023/07/10 02:44:53;;;;;;;4.05;2.62;;;;;;;18.12;60.25;100164.58;1742049;82;21495;-66
2023/07/10 02:47:22;;;;;;;5.58;3.10;;;;;;;18.12;60.30;100163.19;1742115;82;21240;-66
2023/07/10 02:49:51;;;;;;;4.40;2.80;;;;;;;18.10;60.44;100162.60;1742123;82;21035;-67
2023/07/10 02:52:20;;;;;;;4.58;2.98;;;;;;;18.09;60.50;100169.24;1742235;82;21055;-66
2023/07/10 02:54:49;;;;;;;5.75;3.25;;;;;;;18.08;60.50;100172.56;1742107;82;21047;-65
2023/07/10 02:57:18;;;;;;;4.97;3.12;;;;;;;18.08;60.66;100179.49;1742445;82;21032;-66
2023/07/10 02:59:46;;;;;;;5.03;2.98;;;;;;;18.09;60.73;100172.86;1752081;82;21134;-66
2023/07/10 03:02:15;;;;;;;5.45;3.05;;;;;;;18.08;60.73;100174.50;1752044;82;21023;-67
2023/07/10 03:04:44;;;;;;;5.53;2.77;;;;;;;18.08;60.82;100177.27;1752148;82;21012;-66
2023/07/10 03:07:13;;;;;;;5.15;2.92;;;;;;;18.08;60.88;100171.17;1751901;82;21471;-66
2023/07/10 03:09:43;;;;;;;5.42;3.08;;;;;;;18.06;60.94;100169.20;1752070;82;21081;-66
2023/07/10 03:12:11;;;;;;;7.92;3.30;;;;;;;18.02;61.01;100170.25;1751894;82;21125;-65
2023/07/10 03:14:40;;;;;;;3.72;2.75;;;;;;;18.00;61.10;100173.82;1752016;82;21050;-66
2023/07/10 03:17:09;;;;;;;4.33;2.98;;;;;;;17.99;61.13;100170.76;1752090;82;21126;-66
2023/07/10 03:19:38;;;;;;;4.47;2.95;;;;;;;17.99;61.17;100166.59;1752133;82;21055;-67
2023/07/10 03:22:07;;;;;;;5.30;3.33;;;;;;;17.99;61.34;100163.83;1752138;82;21023;-66
2023/07/10 03:24:35;;;;;;;3.50;2.90;;;;;;;17.99;61.42;100163.83;1751797;82;21478;-66
2023/07/10 03:27:06;;;;;;;5.35;3.12;;;;;;;17.99;61.49;100169.91;1752066;82;21162;-65
2023/07/10 03:29:36;;;;;;;3.65;3.05;;;;;;;17.99;61.58;100167.98;1751849;82;21463;-65
2023/07/10 03:32:08;;;;;;;5.58;3.30;;;;;;;18.01;61.66;100169.96;1751980;82;21098;-66
2023/07/10 03:34:36;;;;;;;4.70;2.92;;;;;;;18.01;61.58;100172.73;1751865;82;21451;-66
2023/07/10 03:37:07;;;;;;;3.40;2.92;;;;;;;18.04;61.73;100174.16;1751890;82;21083;-67
2023/07/10 03:39:36;;;;;;;5.45;3.05;;;;;;;18.05;61.78;100171.13;1752117;82;20991;-66
2023/07/10 03:42:05;;;;;;;5.05;3.00;;;;;;;18.08;61.78;100165.63;1751875;82;21026;-67
2023/07/10 03:44:34;;;;;;;4.12;2.83;;;;;;;18.13;61.72;100171.80;1751973;82;21505;-66
2023/07/10 03:47:05;;;;;;;9.33;3.72;;;;;;;18.16;61.59;100164.36;1752190;82;21015;-65
2023/07/10 03:49:34;;;;;;;6.08;3.30;;;;;;;18.20;61.65;100165.53;1751807;82;21019;-66
2023/07/10 03:52:04;;;;;;;5.47;3.25;;;;;;;18.23;61.77;100163.67;1751938;82;21095;-68
2023/07/10 03:54:33;;;;;;;5.70;3.00;;;;;;;18.24;61.70;100159.81;1751847;82;20987;-66
2023/07/10 03:57:03;;;;;;;9.98;3.90;;;;;;;18.25;61.72;100164.26;1751900;82;20995;-65
2023/07/10 03:59:31;;;;;;;7.25;3.27;;;;;;;18.30;61.74;100156.02;1745263;82;21008;-66
2023/07/10 04:02:00;;;;;;;6.75;2.95;;;;;;;18.32;61.84;100147.73;1744015;82;21078;-66
2023/07/10 04:04:29;;;;;;;5.55;3.40;;;;;;;18.33;61.69;100149.96;1744088;82;21074;-67
2023/07/10 04:06:58;;;;;;;5.97;3.12;;;;;;;18.35;61.37;100151.38;1744105;82;21283;-66
2023/07/10 04:09:28;;;;;;;6.37;3.15;;;;;;;18.40;61.29;100146.45;1743990;82;21104;-69
2023/07/10 04:11:57;;;;;;;8.23;3.15;;;;;;;18.46;61.27;100150.98;1743929;82;21439;-65
2023/07/10 04:14:26;;;;;;;5.80;3.30;;;;;;;18.52;61.37;100149.96;1743816;82;20980;-67
2023/07/10 04:16:55;;;;;;;8.85;3.67;;;;;;;18.56;61.26;100151.67;1744053;82;21521;-67
2023/07/10 04:19:24;;;;;;;10.55;3.75;;;;;;;18.63;61.33;100148.20;1744155;82;21098;-66
2023/07/10 04:21:53;;;;;;;5.10;3.00;;;;;;;18.67;60.89;100150.20;1743984;82;21027;-67
2023/07/10 04:24:24;;;;;;;8.25;3.30;;;;;;;18.73;60.93;100143.33;1743684;82;21423;-66
2023/07/10 04:26:54;;;;;;;7.28;3.55;;;;;;;18.74;60.49;100144.45;1744026;82;21012;-65
2023/07/10 04:29:24;;;;;;;8.23;3.25;;;;;;;18.81;60.16;100134.55;1744298;82;21031;-67
2023/07/10 04:31:52;;;;;;;7.60;3.10;;;;;;;18.88;60.21;100138.00;1743929;82;21042;-67
2023/07/10 04:34:21;;;;;;;5.10;3.17;;;;;;;18.94;59.98;100136.97;1744036;82;21451;-68
2023/07/10 04:36:49;;;;;;;5.15;3.10;;;;;;;19.00;59.57;100140.94;1743844;82;21471;-67
2023/07/10 04:39:18;;;;;;;4.08;3.02;;;;;;;19.06;59.25;100136.83;1743728;82;21213;-66
2023/07/10 04:41:47;;;;;;;5.65;2.98;;;;;;;19.12;59.48;100138.02;1723366;82;21040;-67
2023/07/10 04:44:16;;;;;;;4.97;3.15;;;;;;;19.15;59.30;100138.05;1744074;82;21035;-66
2023/07/10 04:46:45;;;;;;;4.37;3.00;;;;;;;19.22;59.16;100134.51;1743860;82;21075;-65
2023/07/10 04:49:15;;;;;;;5.67;2.90;;;;;;;19.28;58.66;100138.47;1744194;82;21035;-66
2023/07/10 04:51:45;;;;;;;6.15;3.30;;;;;;;19.35;58.51;100137.42;1744084;82;21062;-66
2023/07/10 04:54:15;;;;;;;5.97;3.17;;;;;;;19.40;58.31;100133.30;1723352;82;21639;-67
2023/07/10 04:56:44;;;;;;;4.12;2.80;;;;;;;19.46;58.06;100133.64;1723312;82;21070;-66
2023/07/10 04:59:13;;;;;;;4.30;3.02;;;;;;;19.54;57.73;100136.02;1743899;82;21051;-65
2023/07/10 05:01:42;;;;;;;7.30;3.42;;;;;;;19.62;57.50;100130.81;1723247;82;21096;-65
2023/07/10 05:04:12;;;;;;;5.00;3.00;;;;;;;19.75;57.29;100130.92;1744036;82;21039;-66
2023/07/10 05:06:41;;;;;;;5.62;3.42;;;;;;;19.94;56.40;100137.77;1744071;82;21059;-68
2023/07/10 05:09:10;;;;;;;5.65;2.92;;;;;;;20.17;55.85;100139.35;1744072;82;21055;-68
2023/07/10 05:11:38;;;;;;;7.12;4.53;;;;;;;20.43;55.17;100136.77;1743868;82;21039;-67
2023/07/10 05:14:07;;;;;;;5.08;3.37;;;;;;;20.70;54.33;100138.03;1743831;82;21310;-66
2023/07/10 05:16:36;;;;;;;7.05;3.37;;;;;;;21.01;53.92;100132.91;1744044;82;21228;-67
2023/07/10 05:19:06;;;;;;;4.53;2.98;;;;;;;21.35;52.97;100129.69;1743807;82;21003;-64
2023/07/10 05:21:35;;;;;;;4.47;3.10;;;;;;;21.68;52.05;100135.34;1743805;82;21459;-66
2023/07/10 05:24:05;;;;;;;6.78;3.22;;;;;;;22.02;51.21;100132.28;1743902;82;20999;-67
2023/07/10 05:26:36;;;;;;;4.65;3.17;;;;;;;22.32;49.66;100125.05;1743964;82;21094;-68
2023/07/10 05:29:04;;;;;;;5.03;3.30;;;;;;;22.56;49.27;100128.06;1744105;82;21027;-68
2023/07/10 05:31:35;;;;;;;6.05;3.27;;;;;;;22.81;48.81;100124.41;1743829;82;21070;-67
2023/07/10 05:34:04;;;;;;;6.08;3.40;;;;;;;23.03;47.68;100124.30;1744017;82;21023;-68
2023/07/10 05:36:32;;;;;;;4.70;3.25;;;;;;;23.23;47.33;100116.94;1743937;82;21074;-66
2023/07/10 05:39:01;;;;;;;4.40;2.90;;;;;;;23.42;46.96;100120.76;1744104;82;21027;-67
2023/07/10 05:41:30;;;;;;;5.58;3.45;;;;;;;23.68;46.38;100127.04;1744062;82;21023;-66
2023/07/10 05:43:59;;;;;;;7.00;3.00;;;;;;;23.92;45.30;100126.56;1743929;82;21537;-67
2023/07/10 05:46:28;;;;;;;6.45;3.52;;;;;;;24.13;44.81;100122.22;1744074;82;21075;-67
2023/07/10 05:48:56;;;;;;;6.05;3.08;;;;;;;24.28;45.02;100128.53;1723516;82;21525;-67
2023/07/10 05:51:26;;;;;;;4.10;2.77;;;;;;;24.52;44.37;100124.92;1743989;82;21463;-68
2023/07/10 05:53:56;;;;;;;5.85;2.90;;;;;;;24.76;43.17;100128.59;1723436;82;21041;-67
2023/07/10 05:56:24;;;;;;;4.28;2.92;;;;;;;24.89;42.57;100125.08;1743982;82;21035;-67
2023/07/10 05:58:54;;;;;;;5.05;2.75;;;;;;;25.00;42.54;100117.97;1746315;82;21007;-68
2023/07/10 06:01:23;;;;;;;7.55;2.92;;;;;;;25.18;42.42;100126.97;1751849;82;21062;-67
2023/07/10 06:03:52;;;;;;;3.87;2.95;;;;;;;25.41;41.85;100120.50;1752060;82;21026;-69
2023/07/10 06:06:24;;;;;;;4.85;2.83;;;;;;;25.53;41.17;100125.66;1751983;82;21047;-68
2023/07/10 06:08:53;;;;;;;7.87;4.25;;;;;;;25.55;41.36;100131.80;1752055;82;21023;-68
2023/07/10 06:11:22;;;;;;;4.80;3.50;;;;;;;25.66;40.88;100117.91;1752048;82;21429;-66
2023/07/10 06:13:51;;;;;;;4.62;3.10;;;;;;;25.84;40.80;100125.47;1752078;82;21070;-65
2023/07/10 06:16:20;;;;;;;4.03;3.10;;;;;;;26.00;40.20;100123.23;1751832;82;21093;-66
2023/07/10 06:18:48;;;;;;;6.45;3.72;;;;;;;26.09;39.95;100116.38;1752099;82;21043;-67
2023/07/10 06:21:17;;;;;;;7.22;3.70;;;;;;;26.13;39.97;100116.02;1751936;82;21456;-65
2023/07/10 06:23:47;;;;;;;5.90;3.30;;;;;;;26.13;40.29;100112.64;1752156;82;21011;-66
2023/07/10 06:26:15;;;;;;;5.17;3.33;;;;;;;26.22;40.31;100107.15;1751929;82;21470;-66
2023/07/10 06:28:44;;;;;;;8.33;3.35;;;;;;;26.34;40.09;100106.68;1751951;82;21039;-66
2023/07/10 06:31:13;;;;;;;5.22;3.10;;;;;;;26.47;39.83;100107.27;1752108;82;21027;-67
2023/07/10 06:33:41;;;;;;;7.67;3.40;;;;;;;26.63;39.85;100110.04;1722753;82;21035;-67
2023/07/10 06:36:10;;;;;;;6.10;3.37;;;;;;;26.82;39.08;100107.98;1751883;82;21105;-66
2023/07/10 06:38:39;;;;;;;4.42;3.20;;;;;;;26.77;39.28;100103.05;1752040;82;21174;-68
2023/07/10 06:41:10;;;;;;;4.33;3.10;;;;;;;26.77;39.34;100103.88;1752023;82;20988;-67
2023/07/10 06:43:41;;;;;;;6.97;3.33;;;;;;;26.85;38.85;100105.95;1752114;82;21070;-66
2023/07/10 06:46:10;;;;;;;3.60;3.15;;;;;;;26.85;38.85;100105.95;1752013;82;21027;-66
2023/07/10 06:48:40;;;;;;;4.87;3.33;;;;;;;26.80;38.90;100110.86;1751924;82;21066;-68
2023/07/10 06:51:09;;;;;;;5.75;3.50;;;;;;;26.83;38.42;100111.06;1699594;82;21062;-66
2023/07/10 06:53:39;;;;;;;4.55;2.90;;;;;;;26.88;38.83;100106.48;1752048;82;21098;-68
2023/07/10 06:56:07;;;;;;;7.05;3.30;;;;;;;27.02;38.39;100100.30;1751924;82;21059;-67
2023/07/10 06:58:36;;;;;;;4.85;3.42;;;;;;;27.22;38.32;100108.28;1751582;82;21483;-67
2023/07/10 07:01:05;;;;;;;11.95;4.03;;;;;;;27.43;37.90;100096.02;1743999;82;21031;-66
2023/07/10 07:03:35;;;;;;;5.85;3.02;;;;;;;27.54;37.26;100096.61;1743898;82;21066;-68
2023/07/10 07:06:06;;;;;;;4.53;3.20;;;;;;;27.63;37.57;100101.19;1744112;82;21039;-66
2023/07/10 07:08:36;;;;;;;5.45;3.25;;;;;;;27.69;37.00;100093.45;1743931;82;21071;-67
2023/07/10 07:11:06;;;;;;;4.80;3.00;;;;;;;27.82;36.59;100088.33;1744188;82;21458;-66
2023/07/10 07:13:36;;;;;;;4.50;3.00;;;;;;;27.87;36.36;100091.02;1743877;82;21007;-66
2023/07/10 07:16:04;;;;;;;4.37;3.20;;;;;;;27.91;36.27;100082.76;1744120;82;21019;-67
2023/07/10 07:18:34;;;;;;;3.12;2.60;;;;;;;27.98;36.22;100085.98;1744136;82;21028;-67
2023/07/10 07:21:03;;;;;;;3.30;2.58;;;;;;;28.05;35.35;100088.61;1743956;82;21443;-66
2023/07/10 07:23:32;;;;;;;6.53;2.90;;;;;;;28.13;35.41;100087.57;1744107;82;21047;-66
2023/07/10 07:26:01;;;;;;;5.22;2.80;;;;;;;28.31;35.23;100080.33;1743897;82;21051;-66
2023/07/10 07:28:30;;;;;;;5.58;2.55;;;;;;;28.49;34.96;100076.18;1744008;82;21117;-67
2023/07/10 07:31:04;;;;;;;6.58;2.75;;;;;;;28.63;34.83;100081.16;1743164;82;21082;-67
2023/07/10 07:33:33;;;;;;;3.15;2.30;;;;;;;28.73;34.34;100074.64;1742891;80;21040;-70
2023/07/10 07:36:04;;;;;;;11.30;3.40;;;;;;;28.88;34.04;100081.02;1742636;81;21080;-70
2023/07/10 07:38:33;;;;;;;3.98;2.52;;;;;;;28.96;34.01;100083.03;1743046;82;21354;-69
2023/07/10 07:41:05;;;;;;;3.45;2.42;;;;;;;28.82;34.05;100083.71;1743036;82;21037;-69
2023/07/10 07:43:34;;;;;;;6.90;2.75;;;;;;;28.76;33.87;100079.38;1722316;82;21095;-71
2023/07/10 07:46:03;;;;;;;4.37;2.55;;;;;;;28.79;34.36;100076.73;1742989;82;21021;-71
2023/07/10 07:48:33;;;;;;;3.92;2.42;;;;;;;28.89;34.46;100079.86;1742832;82;21465;-69
2023/07/10 07:51:05;;;;;;;7.33;2.30;;;;;;;28.96;33.73;100072.58;1743804;82;21053;-70
2023/07/10 07:53:38;;;;;;;3.52;2.05;;;;;;;28.67;33.73;100068.91;1743589;82;20996;-69
2023/07/10 07:56:08;;;;;;;3.55;2.12;;;;;;;28.42;34.62;100071.02;1736214;82;21079;-68
2023/07/10 07:58:36;;;;;;;4.20;2.12;;;;;;;28.45;34.43;100063.89;1744022;82;21032;-69
2023/07/10 08:01:06;;;;;;;2.30;1.87;;;;;;;28.54;34.44;100065.59;1755809;82;21433;-71
2023/07/10 08:03:35;;;;;;;11.57;2.72;;;;;;;28.72;33.93;100057.47;1761347;81;21009;-71
2023/07/10 08:06:06;;;;;;;3.05;1.90;;;;;;;28.68;33.91;100051.41;1690037;85;21102;-70
2023/07/10 08:08:36;;;;;;;4.12;2.70;;;;;;;28.73;33.49;100054.91;1737645;82;21481;-70
2023/07/10 08:11:06;;;;;;;2.55;1.60;;;;;;;28.75;33.58;100055.16;1704337;83;21059;-71
2023/07/10 08:13:35;;;;;;;2.22;1.60;;;;;;;28.81;32.54;100058.08;1767175;81;21525;-72
2023/07/10 08:16:05;;;;;;;2.80;1.65;;;;;;;28.89;31.89;100050.25;1689422;84;21039;-69
2023/07/10 08:18:36;;;;;;;7.75;3.20;;;;;;;29.07;32.00;100060.41;1767323;81;21491;-71
2023/07/10 08:21:07;;;;;;;8.08;3.15;;;;;;;29.16;32.40;100059.84;1689540;85;21035;-72
2023/07/10 08:23:36;;;;;;;4.92;2.22;;;;;;;29.18;32.78;100043.98;1716168;81;21163;-71
2023/07/10 08:26:07;;;;;;;11.95;4.40;;;;;;;29.14;33.03;100049.46;1767498;81;21104;-70
2023/07/10 08:28:36;;;;;;;6.65;2.30;;;;;;;28.79;32.56;100038.66;1756833;81;20999;-71
2023/07/10 08:31:07;;;;;;;3.72;2.17;;;;;;;28.38;33.06;100055.33;1688011;85;21058;-69
2023/07/10 08:33:39;;;;;;;4.87;2.00;;;;;;;28.30;32.30;100039.22;1752396;82;21075;-71
2023/07/10 08:36:10;;;;;;;4.05;1.90;;;;;;;28.15;32.92;100051.45;1752694;82;21035;-69
2023/07/10 08:38:40;;;;;;;4.50;1.70;;;;;;;28.15;33.22;100043.00;1688129;85;21495;-71
2023/07/10 08:41:21;;;;;;;2.70;1.80;;;;;;;28.40;33.11;100053.59;1752323;82;21039;-70
2023/07/10 08:43:50;;;;;;;3.60;1.50;;;;;;;28.67;32.58;100048.34;1724389;82;21063;-70
2023/07/10 08:46:23;;;;;;;1.80;1.60;;;;;;;28.88;32.23;100051.41;1688198;85;21429;-70
2023/07/10 08:49:09;;;;;;;1.72;1.62;;;;;;;28.88;32.64;100045.19;1752636;82;21042;-70
2023/07/10 08:51:56;;;;;;;14.45;3.87;;;;;;;28.76;32.98;100038.48;1688213;85;21091;-73
2023/07/10 08:54:26;;;;;;;5.65;1.90;;;;;;;28.56;33.28;100039.89;1752404;82;20995;-69
2023/07/10 08:57:19;;;;;;;2.52;1.77;;;;;;;28.35;33.48;100041.06;1752767;82;21481;-69
2023/07/10 09:00:11;;;;;;;3.25;1.67;;;;;;;28.27;33.87;100040.44;1751583;82;21135;-72
2023/07/10 09:03:05;;;;;;;2.98;1.87;;;;;;;28.36;33.79;100038.48;1745531;82;21072;-69
2023/07/10 09:05:35;;;;;;;2.25;1.45;;;;;;;28.56;32.94;100033.67;1743663;82;21493;-70
2023/07/10 09:08:09;;;;;;;2.83;1.57;;;;;;;28.60;32.77;100044.55;1722967;82;21033;-69
2023/07/10 09:10:50;;;;;;;3.50;1.67;;;;;;;28.54;33.06;100043.03;1743770;82;21505;-71
2023/07/10 09:13:23;;;;;;;4.78;2.30;;;;;;;28.51;32.84;100037.22;1743675;82;21061;-71
2023/07/10 09:16:00;;;;;;;2.40;1.82;;;;;;;28.49;32.88;100038.95;1743608;82;21057;-69
2023/07/10 09:18:54;;;;;;;2.65;1.55;;;;;;;28.38;32.90;100038.42;1743562;82;21064;-69
2023/07/10 09:21:31;;;;;;;2.77;1.90;;;;;;;28.18;33.72;100045.17;1743699;82;21642;-69
2023/07/10 09:24:04;;;;;;;3.85;1.60;;;;;;;27.58;33.23;100035.70;1744008;82;21069;-71
2023/07/10 09:26:39;;;;;;;5.72;2.22;;;;;;;27.58;33.23;100035.70;1743724;82;21045;-70
2023/07/10 09:29:18;;;;;;;2.25;1.85;;;;;;;27.27;34.18;100025.17;1743799;82;21093;-70
2023/07/10 09:32:16;;;;;;;3.22;1.72;;;;;;;27.06;34.91;100031.02;1743850;82;21491;-73
2023/07/10 09:34:56;;;;;;;3.10;2.00;;;;;;;27.08;34.77;100016.06;1687543;85;21059;-69
2023/07/10 09:37:29;;;;;;;2.87;1.80;;;;;;;27.07;34.55;100024.25;1734837;82;21077;-68
2023/07/10 09:40:19;;;;;;;4.37;1.98;;;;;;;27.00;35.01;100023.27;1743662;82;21033;-71
2023/07/10 09:42:49;;;;;;;8.85;2.70;;;;;;;26.87;35.32;100027.49;1743975;82;21100;-69
2023/07/10 09:45:19;;;;;;;2.47;1.80;;;;;;;26.56;35.92;100025.31;1743723;82;21469;-70
2023/07/10 09:47:50;;;;;;;2.58;1.55;;;;;;;26.46;35.93;100029.73;1743725;82;21554;-71
2023/07/10 09:50:19;;;;;;;2.20;1.57;;;;;;;26.37;35.42;100031.61;1743935;82;21101;-71
2023/07/10 09:52:55;;;;;;;3.27;1.60;;;;;;;26.30;35.35;100024.97;1743704;82;21092;-71
2023/07/10 09:55:25;;;;;;;3.85;1.90;;;;;;;26.20;35.36;100023.77;1743849;82;21132;-71
2023/07/10 09:58:00;;;;;;;3.67;1.80;;;;;;;26.19;36.08;100015.08;1743895;82;21065;-71
2023/07/10 10:00:36;;;;;;;2.45;1.70;;;;;;;26.31;36.24;100021.59;1743708;82;21049;-72
2023/07/10 10:03:25;;;;;;;4.10;2.08;;;;;;;26.44;35.90;100016.58;1721962;81;21040;-71
2023/07/10 10:05:57;;;;;;;3.92;1.50;;;;;;;26.39;35.77;100023.70;1774498;81;21016;-72
2023/07/10 10:08:31;;;;;;;3.62;1.62;;;;;;;26.20;35.30;100021.80;1774493;80;21016;-72
2023/07/10 10:11:07;;;;;;;18.35;2.20;;;;;;;26.05;35.66;100014.23;1708001;84;21004;-71
2023/07/10 10:13:51;;;;;;;1.50;1.30;;;;;;;25.93;37.17;100029.31;1774305;81;21495;-71
2023/07/10 10:16:39;;;;;;;2.72;1.40;;;;;;;25.94;36.09;100019.18;1764966;81;21055;-67
2023/07/10 10:19:30;;;;;;;3.73;1.80;;;;;;;25.81;36.36;100018.58;1773931;81;21082;-71
2023/07/10 10:22:00;;;;;;;2.15;1.60;;;;;;;25.66;36.16;100017.45;1755056;81;21035;-69
2023/07/10 10:24:32;;;;;;;4.10;2.98;;;;;;;25.54;35.94;100028.55;1743894;82;21087;-70
2023/07/10 10:27:17;;;;;;;5.15;2.15;;;;;;;25.60;36.86;100027.33;1723383;82;21027;-70
2023/07/10 10:30:01;;;;;;;3.92;1.80;;;;;;;25.71;36.88;100025.78;1743877;82;21275;-68
2023/07/10 10:32:55;;;;;;;5.37;1.55;;;;;;;25.75;36.59;100024.02;1743766;82;21513;-65
2023/07/10 10:35:41;;;;;;;2.20;1.50;;;;;;;25.67;36.07;100026.13;1743779;82;21082;-66
2023/07/10 10:38:41;;;;;;;3.22;1.50;;;;;;;25.55;36.24;100022.37;1743956;82;21058;-66
2023/07/10 10:41:45;;;;;;;2.35;1.50;;;;;;;25.56;36.28;100006.63;1743758;82;21035;-65
2023/07/10 10:44:52;;;;;;;4.10;1.65;;;;;;;25.65;36.39;99991.90;1712237;82;21498;-64
2023/07/10 10:47:51;;;;;;;3.70;1.77;;;;;;;25.76;36.37;100008.84;1743952;82;21090;-64
2023/07/10 10:50:23;;;;;;;;;;;;;;;25.85;35.31;100005.59;1726473;83;21050;-64
2023/07/10 10:53:18;;;;;;;2.58;1.70;;;;;;;25.94;36.08;99997.29;1724009;82;20187;-64
2023/07/10 10:56:05;;;;;;;4.58;1.55;;;;;;;25.96;36.85;99996.41;1724358;83;21086;-64
2023/07/10 10:59:21;;;;;;;2.20;1.65;;;;;;;25.98;35.91;99983.73;1722519;83;21078;-64
2023/07/10 11:02:39;;;;;;;2.20;1.67;;;;;;;25.99;35.59;99984.56;1723892;83;21075;-64
2023/07/10 11:05:33;;;;;;;1.72;1.47;;;;;;;26.08;35.52;99986.37;1723944;83;21098;-63
2023/07/10 11:08:15;;;;;;;2.15;1.70;;;;;;;26.21;34.46;99982.73;1724078;83;21031;-64
2023/07/10 11:10:44;;;;;;;1.60;1.50;;;;;;;26.34;34.50;99984.48;1723964;83;21486;-63
2023/07/10 11:13:36;;;;;;;1.72;1.42;;;;;;;26.35;34.35;99991.19;1723744;83;21077;-65
2023/07/10 11:16:06;;;;;;;4.97;1.37;;;;;;;26.27;34.79;99979.82;1723915;83;21138;-66
2023/07/10 11:18:37;;;;;;;2.87;1.50;;;;;;;26.20;35.25;99988.09;1724138;83;21082;-65
2023/07/10 11:21:06;;;;;;;3.92;1.60;;;;;;;26.12;36.88;99986.00;1723850;82;21034;-64
2023/07/10 11:23:43;;;;;;;4.65;2.08;;;;;;;25.89;36.95;100008.88;1723748;82;21086;-64
2023/07/10 11:26:26;;;;;;;3.27;1.70;;;;;;;25.62;38.16;100004.57;1723830;83;21490;-64
2023/07/10 11:29:01;;;;;;;13.18;2.25;;;;;;;25.27;38.97;100012.98;1724070;83;21078;-63
2023/07/10 11:31:42;;;;;;;4.62;2.30;;;;;;;24.99;39.39;100019.02;1723662;83;21031;-63
2023/07/10 11:34:21;;;;;;;2.00;1.60;;;;;;;24.84;39.36;100017.80;1724196;83;21054;-65
2023/07/10 11:36:50;;;;;;;4.10;1.80;;;;;;;24.71;39.46;100007.30;1723904;83;21095;-64
2023/07/10 11:39:32;;;;;;;2.00;1.60;;;;;;;24.58;39.90;100006.08;1723832;83;21093;-64
2023/07/10 11:42:14;;;;;;;4.87;1.67;;;;;;;24.49;40.84;100028.31;1724081;83;21502;-64
2023/07/10 11:44:48;;;;;;;2.70;1.80;;;;;;;24.26;42.36;100023.52;1723911;83;21055;-65
2023/07/10 11:47:21;;;;;;;5.00;1.70;;;;;;;23.92;43.65;100013.22;1723787;83;21011;-66
2023/07/10 11:49:58;;;;;;;1.92;1.70;;;;;;;23.71;44.26;100016.79;1722323;82;21082;-66
2023/07/10 11:52:30;;;;;;;3.70;1.90;;;;;;;23.70;44.15;100012.32;1721677;83;21094;-69
2023/07/10 11:55:10;;;;;;;1.87;1.60;;;;;;;23.73;43.88;100011.46;1721474;83;21502;-71